Buoy 16555

sailwx.info

Track history (hours):
 
Tides and Currents Weather Stations Pressure Air Temp Water Temp Dewpoint Dewpoint Depression Visibility Wind Speed Wind Dir Waves Ship Positions

Drifting buoy 16555

Last reported at 2016-Jun-27 00:00 UTC. Time now 2016-Jun-27 02:25 UTC.
Position S 34°56' E 081°51'.

Barometer 1019.9 mb
Water temperature 15.3 ° C

Date/timePositionNaut miles runAvg speedWind from/ knotsBaromVisibWave heightAir tempDewpointWater temp
2016-Jun-27 00:00S 34°56' E 081°51'1 1.0 1019.9 15.3
2016-Jun-26 23:00S 34°55' E 081°50'1 0.2 1019.1 15.3
2016-Jun-26 16:00S 34°55' E 081°49'1 0.3 1020.4 14.9
2016-Jun-26 14:00S 34°55' E 081°48'1 0.4 1020.7 14.9
2016-Jun-26 11:00S 34°56' E 081°48'3 0.4 1020.3 15.0
2016-Jun-26 04:00S 34°59' E 081°49'1 0.6 1022.4 14.9
2016-Jun-26 03:00S 34°59' E 081°48'2 0.5 1022.2 14.9
2016-Jun-26 00:00S 35°00' E 081°47'1 0.7 1021.0 14.7
2016-Jun-25 23:00S 35°01' E 081°47'2 0.4 1020.7 14.7
2016-Jun-25 18:00S 35°03' E 081°46'0 0.4 1019.5 14.7
2016-Jun-25 17:00S 35°03' E 081°46'0 0.0 1018.9 14.7
2016-Jun-25 15:00S 35°03' E 081°46'2 0.5 1017.4 14.7
2016-Jun-25 11:00S 35°05' E 081°47'5 0.7 1014.4 14.7
2016-Jun-25 04:00S 35°09' E 081°44'0 0.0 1013.6 14.8
2016-Jun-25 03:00S 35°09' E 081°44'1 1.2 1013.3 14.9
2016-Jun-25 02:00S 35°10' E 081°43'0 0.1 1012.6 14.7
2016-Jun-25 00:00S 35°10' E 081°43'0 0.0 1011.9 14.7
2016-Jun-24 23:00S 35°10' E 081°43'3 0.4 1012.0 14.7
2016-Jun-24 15:00S 35°11' E 081°40'1 0.3 1016.8 14.7
2016-Jun-24 12:00S 35°12' E 081°39'1 0.5 1017.8 14.7
2016-Jun-24 11:00S 35°12' E 081°38'1 0.6 1018.1 14.7
2016-Jun-24 09:00S 35°13' E 081°38'4 0.4 1018.7 14.7
2016-Jun-23 22:00S 35°17' E 081°36'2 0.5 1024.3 14.6
2016-Jun-23 18:00S 35°19' E 081°36'0 0.3 1025.6 14.6
2016-Jun-23 17:00S 35°19' E 081°36'0 0.3 1025.9 14.6
2016-Jun-23 16:00S 35°19' E 081°36'1 0.6 1025.9 14.6
2016-Jun-23 14:00S 35°20' E 081°36'2 0.5 1025.6 14.7
2016-Jun-23 11:00S 35°22' E 081°36'5 0.6 1023.9 14.7
2016-Jun-23 03:00S 35°26' E 081°34'0 0.1 1026.8 14.6
2016-Jun-23 02:00S 35°26' E 081°34'0 0.0 1026.5 14.6
2016-Jun-23 01:00S 35°26' E 081°34'1 0.6 1026.7 14.6
2016-Jun-23 00:00S 35°27' E 081°33'1 0.8 1026.8 14.7
2016-Jun-22 23:00S 35°27' E 081°33'3 0.5 1026.9 14.7
2016-Jun-22 17:00S 35°30' E 081°32'2 0.6 1030.2 14.7
2016-Jun-22 13:00S 35°32' E 081°31'1 0.6 1031.1 14.7
2016-Jun-22 12:00S 35°33' E 081°31'1 0.5 1030.9 14.7
2016-Jun-22 10:00S 35°33' E 081°30'0 0.0 1030.8 14.7
2016-Jun-22 09:00S 35°33' E 081°30'2 0.5 1030.9 14.8
2016-Jun-22 05:00S 35°35' E 081°29'1 0.3 1033.3 14.7
2016-Jun-22 02:00S 35°36' E 081°29'1 0.3 1032.9 14.7
2016-Jun-22 00:00S 35°36' E 081°29'1 1.4 1032.4 14.7
2016-Jun-21 23:00S 35°35' E 081°31'5 0.8 1032.5 14.7
2016-Jun-21 17:00S 35°40' E 081°29'1 0.4 1034.3 14.7
2016-Jun-21 15:00S 35°41' E 081°29'0 0.4 1034.5 14.7
2016-Jun-21 14:00S 35°41' E 081°29'1 0.5 1034.5 14.7
2016-Jun-21 12:00S 35°42' E 081°28'3 0.3 1034.1 14.7
2016-Jun-21 03:00S 35°45' E 081°29'0 0.0 1035.4 14.7
2016-Jun-21 02:00S 35°45' E 081°29'1 0.9 1035.0 14.7
2016-Jun-21 01:00S 35°45' E 081°30'0 0.0 1034.5 14.7
2016-Jun-21 00:00S 35°45' E 081°30'1 0.7 1034.3 14.7
2016-Jun-20 22:00S 35°47' E 081°30'2 0.5 1034.4 14.7
2016-Jun-20 18:00S 35°49' E 081°30'0 0.0 1034.9 14.7
2016-Jun-20 17:00S 35°49' E 081°30'1 0.3 1035.2 14.7
2016-Jun-20 15:00S 35°49' E 081°29'1 0.5 1035.5 14.7
2016-Jun-20 14:00S 35°49' E 081°29'1 0.3 1035.4 14.7
2016-Jun-20 11:00S 35°50' E 081°30'4 0.5 1034.6 14.7
2016-Jun-20 03:00S 35°52' E 081°33'2 0.9 1036.0 14.7
2016-Jun-20 01:00S 35°54' E 081°33'0 0.0 1035.5 14.7
2016-Jun-20 00:00S 35°54' E 081°33'2 0.7 1035.5 14.7
2016-Jun-19 21:00S 35°56' E 081°33'0 0.0 1035.6 14.7
2016-Jun-19 20:00S 35°56' E 081°33'1 0.2 1035.5 14.6
2016-Jun-19 16:00S 35°57' E 081°32'2 0.4 1035.6 14.6
2016-Jun-19 11:00S 35°58' E 081°33'1 0.7 1034.4 14.6
2016-Jun-19 10:00S 35°59' E 081°34'6 0.8 1034.0 14.6
2016-Jun-19 02:00S 36°05' E 081°37'1 0.7 1032.5 14.6
2016-Jun-19 00:00S 36°06' E 081°37'1 0.2 1031.2 14.6
2016-Jun-18 17:00S 36°07' E 081°37'4 0.7 1028.4 14.6
2016-Jun-18 12:00S 36°10' E 081°40'1 0.6 1025.7 14.6
2016-Jun-18 11:00S 36°11' E 081°41'6 0.7 1025.1 14.6
2016-Jun-18 02:00S 36°16' E 081°45'2 0.8 1020.9 14.7
2016-Jun-18 00:00S 36°17' E 081°46'2 0.3 1018.8 14.7
2016-Jun-17 17:00S 36°18' E 081°49'3 2.9 1014.4 14.7
2016-Jun-17 16:00S 36°19' E 081°52'2 0.5 1013.9 14.7
2016-Jun-17 11:00S 36°20' E 081°54'0 0.0 1007.9 14.7
2016-Jun-17 10:00S 36°20' E 081°54'4 0.5 1006.0 14.8
2016-Jun-17 02:00S 36°24' E 081°57'1 0.6 1001.5 14.8
2016-Jun-17 00:00S 36°24' E 081°58'   999.7 14.8
Track history (hours):
 
Tides and Currents Weather Stations Pressure Air Temp Water Temp Dewpoint Dewpoint Depression Visibility Wind Speed Wind Dir Waves Ship Positions

Drifting buoy 16555

Last reported at 2016-Jun-27 00:00 UTC. Time now 2016-Jun-27 02:25 UTC.
Position S 34°56' E 081°51'.

Barometer 1019.9 mb
Water temperature 15.3 ° C

Date/timePositionNaut miles runAvg speedWind from/ knotsBaromVisibWave heightAir tempDewpointWater temp
2016-Jun-27 00:00S 34°56' E 081°51'1 1.0 1019.9 15.3
2016-Jun-26 23:00S 34°55' E 081°50'1 0.2 1019.1 15.3
2016-Jun-26 16:00S 34°55' E 081°49'1 0.3 1020.4 14.9
2016-Jun-26 14:00S 34°55' E 081°48'1 0.4 1020.7 14.9
2016-Jun-26 11:00S 34°56' E 081°48'3 0.4 1020.3 15.0
2016-Jun-26 04:00S 34°59' E 081°49'1 0.6 1022.4 14.9
2016-Jun-26 03:00S 34°59' E 081°48'2 0.5 1022.2 14.9
2016-Jun-26 00:00S 35°00' E 081°47'1 0.7 1021.0 14.7
2016-Jun-25 23:00S 35°01' E 081°47'2 0.4 1020.7 14.7
2016-Jun-25 18:00S 35°03' E 081°46'0 0.4 1019.5 14.7
2016-Jun-25 17:00S 35°03' E 081°46'0 0.0 1018.9 14.7
2016-Jun-25 15:00S 35°03' E 081°46'2 0.5 1017.4 14.7
2016-Jun-25 11:00S 35°05' E 081°47'5 0.7 1014.4 14.7
2016-Jun-25 04:00S 35°09' E 081°44'0 0.0 1013.6 14.8
2016-Jun-25 03:00S 35°09' E 081°44'1 1.2 1013.3 14.9
2016-Jun-25 02:00S 35°10' E 081°43'0 0.1 1012.6 14.7
2016-Jun-25 00:00S 35°10' E 081°43'0 0.0 1011.9 14.7
2016-Jun-24 23:00S 35°10' E 081°43'3 0.4 1012.0 14.7
2016-Jun-24 15:00S 35°11' E 081°40'1 0.3 1016.8 14.7
2016-Jun-24 12:00S 35°12' E 081°39'1 0.5 1017.8 14.7
2016-Jun-24 11:00S 35°12' E 081°38'1 0.6 1018.1 14.7
2016-Jun-24 09:00S 35°13' E 081°38'4 0.4 1018.7 14.7
2016-Jun-23 22:00S 35°17' E 081°36'2 0.5 1024.3 14.6
2016-Jun-23 18:00S 35°19' E 081°36'0 0.3 1025.6 14.6
2016-Jun-23 17:00S 35°19' E 081°36'0 0.3 1025.9 14.6
2016-Jun-23 16:00S 35°19' E 081°36'1 0.6 1025.9 14.6
2016-Jun-23 14:00S 35°20' E 081°36'2 0.5 1025.6 14.7
2016-Jun-23 11:00S 35°22' E 081°36'5 0.6 1023.9 14.7
2016-Jun-23 03:00S 35°26' E 081°34'0 0.1 1026.8 14.6
2016-Jun-23 02:00S 35°26' E 081°34'0 0.0 1026.5 14.6
2016-Jun-23 01:00S 35°26' E 081°34'1 0.6 1026.7 14.6
2016-Jun-23 00:00S 35°27' E 081°33'1 0.8 1026.8 14.7
2016-Jun-22 23:00S 35°27' E 081°33'3 0.5 1026.9 14.7
2016-Jun-22 17:00S 35°30' E 081°32'2 0.6 1030.2 14.7
2016-Jun-22 13:00S 35°32' E 081°31'1 0.6 1031.1 14.7
2016-Jun-22 12:00S 35°33' E 081°31'1 0.5 1030.9 14.7
2016-Jun-22 10:00S 35°33' E 081°30'0 0.0 1030.8 14.7
2016-Jun-22 09:00S 35°33' E 081°30'2 0.5 1030.9 14.8
2016-Jun-22 05:00S 35°35' E 081°29'1 0.3 1033.3 14.7
2016-Jun-22 02:00S 35°36' E 081°29'1 0.3 1032.9 14.7
2016-Jun-22 00:00S 35°36' E 081°29'1 1.4 1032.4 14.7
2016-Jun-21 23:00S 35°35' E 081°31'5 0.8 1032.5 14.7
2016-Jun-21 17:00S 35°40' E 081°29'1 0.4 1034.3 14.7
2016-Jun-21 15:00S 35°41' E 081°29'0 0.4 1034.5 14.7
2016-Jun-21 14:00S 35°41' E 081°29'1 0.5 1034.5 14.7
2016-Jun-21 12:00S 35°42' E 081°28'3 0.3 1034.1 14.7
2016-Jun-21 03:00S 35°45' E 081°29'0 0.0 1035.4 14.7
2016-Jun-21 02:00S 35°45' E 081°29'1 0.9 1035.0 14.7
2016-Jun-21 01:00S 35°45' E 081°30'0 0.0 1034.5 14.7
2016-Jun-21 00:00S 35°45' E 081°30'1 0.7 1034.3 14.7
2016-Jun-20 22:00S 35°47' E 081°30'2 0.5 1034.4 14.7
2016-Jun-20 18:00S 35°49' E 081°30'0 0.0 1034.9 14.7
2016-Jun-20 17:00S 35°49' E 081°30'1 0.3 1035.2 14.7
2016-Jun-20 15:00S 35°49' E 081°29'1 0.5 1035.5 14.7
2016-Jun-20 14:00S 35°49' E 081°29'1 0.3 1035.4 14.7
2016-Jun-20 11:00S 35°50' E 081°30'4 0.5 1034.6 14.7
2016-Jun-20 03:00S 35°52' E 081°33'2 0.9 1036.0 14.7
2016-Jun-20 01:00S 35°54' E 081°33'0 0.0 1035.5 14.7
2016-Jun-20 00:00S 35°54' E 081°33'2 0.7 1035.5 14.7
2016-Jun-19 21:00S 35°56' E 081°33'0 0.0 1035.6 14.7
2016-Jun-19 20:00S 35°56' E 081°33'1 0.2 1035.5 14.6
2016-Jun-19 16:00S 35°57' E 081°32'2 0.4 1035.6 14.6
2016-Jun-19 11:00S 35°58' E 081°33'1 0.7 1034.4 14.6
2016-Jun-19 10:00S 35°59' E 081°34'6 0.8 1034.0 14.6
2016-Jun-19 02:00S 36°05' E 081°37'1 0.7 1032.5 14.6
2016-Jun-19 00:00S 36°06' E 081°37'1 0.2 1031.2 14.6
2016-Jun-18 17:00S 36°07' E 081°37'4 0.7 1028.4 14.6
2016-Jun-18 12:00S 36°10' E 081°40'1 0.6 1025.7 14.6
2016-Jun-18 11:00S 36°11' E 081°41'6 0.7 1025.1 14.6
2016-Jun-18 02:00S 36°16' E 081°45'2 0.8 1020.9 14.7
2016-Jun-18 00:00S 36°17' E 081°46'2 0.3 1018.8 14.7
2016-Jun-17 17:00S 36°18' E 081°49'3 2.9 1014.4 14.7
2016-Jun-17 16:00S 36°19' E 081°52'2 0.5 1013.9 14.7
2016-Jun-17 11:00S 36°20' E 081°54'0 0.0 1007.9 14.7
2016-Jun-17 10:00S 36°20' E 081°54'4 0.5 1006.0 14.8
2016-Jun-17 02:00S 36°24' E 081°57'1 0.6 1001.5 14.8
2016-Jun-17 00:00S 36°24' E 081°58'   999.7 14.8

Dump ship's entire track history